Time;durP1;ratioP1;P1;durP2;ratioP2;P2;SDS_P1;SDS_P2;PMS_P1;PMS_P2;Temp;Humidity;BMP_temperature;BMP_pressure;BME280_temperature;BME280_humidity;BME280_pressure;Samples;Min_cycle;Max_cycle;Signal;HPM_P1;HPM_P2
2021/04/04 00:00:07;;;;;;;28.10;15.35;;;;;;;5.90;57.45;98612.61;1811004;79;21130;-63
2021/04/04 00:02:37;;;;;;;37.00;18.45;;;;;;;5.86;57.71;98612.11;1741878;82;21198;-63
2021/04/04 00:05:09;;;;;;;31.15;16.93;;;;;;;5.73;58.33;98618.62;1810964;79;21182;-63
2021/04/04 00:07:40;;;;;;;36.15;16.05;;;;;;;5.60;58.72;98617.88;1772546;81;21136;-63
2021/04/04 00:10:11;;;;;;;21.80;14.45;;;;;;;5.53;58.95;98619.82;1810987;79;21162;-63
2021/04/04 00:12:40;;;;;;;43.25;24.32;;;;;;;5.50;58.93;98624.88;1772690;81;21728;-63
2021/04/04 00:15:11;;;;;;;61.25;30.97;;;;;;;5.50;59.59;98628.29;1811006;79;21142;-62
2021/04/04 00:17:39;;;;;;;42.15;24.63;;;;;;;5.41;60.41;98628.90;1742068;82;21217;-63
2021/04/04 00:20:14;;;;;;;37.75;20.97;;;;;;;5.22;60.50;98633.95;1810996;79;21134;-63
2021/04/04 00:22:45;;;;;;;38.53;19.55;;;;;;;5.05;60.55;98638.16;1742310;82;21700;-63
2021/04/04 00:25:16;;;;;;;36.45;19.65;;;;;;;4.93;60.98;98645.93;1811156;79;21142;-62
2021/04/04 00:27:44;;;;;;;36.53;20.68;;;;;;;4.82;61.30;98650.30;1742088;82;21293;-63
2021/04/04 00:30:16;;;;;;;36.83;19.80;;;;;;;4.76;61.67;98651.00;1772746;81;21163;-64
2021/04/04 00:32:45;;;;;;;36.63;20.02;;;;;;;4.73;62.16;98659.84;1811067;79;21316;-62
2021/04/04 00:35:17;;;;;;;33.53;17.85;;;;;;;4.68;62.52;98655.00;1742347;82;21574;-63
2021/04/04 00:37:51;;;;;;;32.58;19.07;;;;;;;4.64;62.47;98653.20;1811065;79;21689;-62
2021/04/04 00:40:26;;;;;;;35.15;19.20;;;;;;;4.66;62.45;98655.39;1811233;79;21276;-63
2021/04/04 00:42:55;;;;;;;34.75;19.00;;;;;;;4.66;62.94;98651.56;1811114;79;21147;-63
2021/04/04 00:45:27;;;;;;;30.85;17.50;;;;;;;4.61;64.57;98656.53;1742212;82;21131;-61
2021/04/04 00:47:55;;;;;;;;;;;;;;;4.59;66.80;98653.05;1814136;79;21146;-62
2021/04/04 00:50:30;;;;;;;27.93;13.65;;;;;;;4.59;67.91;98649.64;1811405;79;20141;-62
2021/04/04 00:52:59;;;;;;;31.60;16.48;;;;;;;4.61;67.57;98648.86;1772692;81;21154;-63
2021/04/04 00:55:27;;;;;;;33.15;17.80;;;;;;;4.67;66.55;98654.14;1811156;79;21142;-63
2021/04/04 00:57:56;;;;;;;27.77;16.65;;;;;;;4.75;66.12;98642.44;1742318;82;21143;-63
2021/04/04 01:00:28;;;;;;;30.65;15.70;;;;;;;4.84;66.00;98636.74;1811433;79;21284;-63
2021/04/04 01:02:57;;;;;;;25.45;13.98;;;;;;;4.89;66.05;98635.19;1773070;81;21151;-62
2021/04/04 01:05:33;;;;;;;27.10;14.43;;;;;;;4.91;66.31;98645.05;1808150;79;21120;-63
2021/04/04 01:08:01;;;;;;;28.10;14.43;;;;;;;4.92;67.45;98640.38;1803999;79;21289;-60
2021/04/04 01:10:34;;;;;;;26.87;16.77;;;;;;;4.92;69.03;98642.93;1722891;82;21214;-61
2021/04/04 01:13:37;;;;;;;27.15;15.63;;;;;;;4.93;70.84;98643.80;1803368;79;21178;-62
2021/04/04 01:16:26;;;;;;;21.45;12.78;;;;;;;4.88;72.56;98638.96;1753013;80;21297;-62
2021/04/04 01:19:02;;;;;;;18.50;11.15;;;;;;;4.80;72.27;98641.30;1803794;79;21139;-60
2021/04/04 01:21:47;;;;;;;22.65;11.55;;;;;;;4.78;71.42;98641.66;1804034;79;21566;-60
2021/04/04 01:24:50;;;;;;;21.93;12.20;;;;;;;4.80;70.89;98646.41;1804003;79;21115;-63
2021/04/04 01:28:02;;;;;;;23.62;12.23;;;;;;;4.86;70.29;98649.55;1802639;79;21150;-62
2021/04/04 01:30:34;;;;;;;24.23;14.00;;;;;;;4.92;69.56;98653.16;1722670;83;21312;-61
2021/04/04 01:33:04;;;;;;;31.57;15.10;;;;;;;4.88;70.32;98658.14;1803743;79;21151;-61
2021/04/04 01:35:36;;;;;;;31.42;17.00;;;;;;;4.73;70.61;98664.95;1722986;82;21154;-62
2021/04/04 01:38:13;;;;;;;29.40;14.20;;;;;;;4.56;70.87;98663.19;1803740;79;21301;-62
2021/04/04 01:40:44;;;;;;;27.98;13.93;;;;;;;4.48;70.88;98657.85;1723187;83;21154;-62
2021/04/04 01:43:13;;;;;;;26.70;13.18;;;;;;;4.42;70.93;98660.20;1753104;80;21268;-62
2021/04/04 01:45:43;;;;;;;30.27;12.98;;;;;;;4.38;70.79;98655.84;1803730;79;21300;-62
2021/04/04 01:48:14;;;;;;;26.70;13.60;;;;;;;4.34;70.69;98652.72;1803944;79;21301;-62
2021/04/04 01:50:43;;;;;;;33.73;14.30;;;;;;;4.35;70.61;98659.55;1803916;79;21139;-61
2021/04/04 01:53:15;;;;;;;37.13;15.30;;;;;;;4.35;70.72;98659.17;1704679;83;21158;-62
2021/04/04 01:55:45;;;;;;;27.30;14.18;;;;;;;4.33;70.87;98659.95;1803890;79;21140;-61
2021/04/04 01:58:14;;;;;;;29.52;14.35;;;;;;;4.31;71.08;98655.19;1803734;79;21158;-61
2021/04/04 02:00:45;;;;;;;26.20;11.95;;;;;;;4.30;71.47;98654.33;1723142;82;21707;-62
2021/04/04 02:03:15;;;;;;;25.40;11.10;;;;;;;4.31;71.67;98648.39;1804365;79;21554;-62
2021/04/04 02:05:45;;;;;;;19.40;10.30;;;;;;;4.33;71.49;98649.31;1806712;79;21206;-62
2021/04/04 02:08:15;;;;;;;20.35;10.35;;;;;;;4.38;71.68;98653.29;1811079;79;21111;-62
2021/04/04 02:10:44;;;;;;;19.75;9.80;;;;;;;4.44;71.14;98656.43;1811364;79;21253;-62
2021/04/04 02:13:12;;;;;;;17.37;8.80;;;;;;;4.54;71.18;98645.25;1742519;82;21570;-62
2021/04/04 02:15:42;;;;;;;15.32;8.85;;;;;;;4.62;70.98;98639.50;1811402;79;21138;-61
2021/04/04 02:18:12;;;;;;;17.55;8.48;;;;;;;4.68;70.68;98638.39;1742144;82;21155;-62
2021/04/04 02:20:40;;;;;;;15.68;8.33;;;;;;;4.73;70.44;98646.67;1811165;79;21127;-63
2021/04/04 02:23:12;;;;;;;17.82;8.40;;;;;;;4.77;70.01;98642.50;1811086;79;21221;-61
2021/04/04 02:25:41;;;;;;;22.50;9.25;;;;;;;4.82;69.66;98640.94;1742216;82;21301;-61
2021/04/04 02:28:09;;;;;;;16.32;8.63;;;;;;;4.87;69.54;98633.41;1811271;79;21158;-63
2021/04/04 02:30:38;;;;;;;18.92;8.38;;;;;;;4.89;69.48;98630.06;1811031;79;21135;-61
2021/04/04 02:33:13;;;;;;;16.70;8.08;;;;;;;4.92;68.96;98628.87;1742374;82;21305;-61
2021/04/04 02:35:44;;;;;;;15.68;8.20;;;;;;;4.94;68.91;98628.50;1811438;79;21131;-62
2021/04/04 02:38:20;;;;;;;14.30;7.80;;;;;;;4.95;68.85;98622.55;1811686;79;21556;-63
2021/04/04 02:40:50;;;;;;;16.35;7.92;;;;;;;4.96;69.21;98629.42;1811071;79;21143;-62
2021/04/04 02:43:27;;;;;;;17.70;8.93;;;;;;;4.95;69.57;98627.67;1811259;79;21170;-61
2021/04/04 02:45:59;;;;;;;18.40;9.40;;;;;;;4.94;69.64;98631.06;1811090;79;21095;-60
2021/04/04 02:48:32;;;;;;;17.40;9.55;;;;;;;4.93;69.41;98629.31;1742304;82;21325;-61
2021/04/04 02:51:05;;;;;;;17.55;9.78;;;;;;;4.94;69.21;98636.18;1811065;79;21138;-62
2021/04/04 02:53:45;;;;;;;16.77;8.60;;;;;;;4.96;69.17;98637.09;1742435;82;21150;-62
2021/04/04 02:56:18;;;;;;;15.33;9.40;;;;;;;4.98;69.06;98637.98;1811610;79;21127;-61
2021/04/04 02:58:51;;;;;;;15.10;9.10;;;;;;;4.98;69.46;98644.37;1811095;79;21115;-63
2021/04/04 03:01:21;;;;;;;21.07;8.60;;;;;;;4.95;69.61;98645.56;1811244;79;21163;-61
2021/04/04 03:03:51;;;;;;;17.90;9.38;;;;;;;4.94;69.70;98648.96;1742177;82;21166;-62
2021/04/04 03:06:20;;;;;;;15.85;8.38;;;;;;;4.91;69.91;98647.99;1810860;79;21300;-63
2021/04/04 03:08:52;;;;;;;17.57;9.15;;;;;;;4.90;69.97;98654.80;1811244;79;21150;-62
2021/04/04 03:11:20;;;;;;;21.45;10.05;;;;;;;4.92;70.14;98649.74;1742351;82;21154;-62
2021/04/04 03:13:51;;;;;;;17.20;9.23;;;;;;;4.95;70.27;98658.35;1811320;79;21243;-62
2021/04/04 03:16:20;;;;;;;15.85;9.15;;;;;;;5.03;70.34;98662.41;1811462;79;21159;-63
2021/04/04 03:18:50;;;;;;;15.90;7.87;;;;;;;5.08;70.16;98663.81;1742109;82;21127;-61
2021/04/04 03:21:18;;;;;;;12.78;6.35;;;;;;;5.08;70.35;98661.26;1811114;79;21284;-62
2021/04/04 03:23:47;;;;;;;13.90;7.50;;;;;;;5.13;71.14;98649.05;1742194;82;21190;-62
2021/04/04 03:26:16;;;;;;;16.85;7.72;;;;;;;5.13;71.48;98637.53;1811314;79;21265;-61
2021/04/04 03:28:45;;;;;;;11.90;6.50;;;;;;;5.11;71.65;98642.16;1811126;79;21297;-62
2021/04/04 03:31:15;;;;;;;13.85;7.03;;;;;;;5.09;72.34;98650.19;1742046;82;21154;-61
2021/04/04 03:33:44;;;;;;;12.50;6.50;;;;;;;5.07;72.59;98646.75;1811158;79;21127;-62
2021/04/04 03:36:17;;;;;;;14.33;7.55;;;;;;;5.06;72.74;98656.09;1810962;79;21127;-63
2021/04/04 03:38:52;;;;;;;11.80;6.95;;;;;;;5.05;72.89;98658.63;1742527;82;21159;-61
2021/04/04 03:41:23;;;;;;;18.17;7.25;;;;;;;5.04;73.19;98658.15;1811340;79;21533;-62
2021/04/04 03:43:52;;;;;;;12.80;7.22;;;;;;;5.05;73.35;98664.59;1742509;82;21171;-62
2021/04/04 03:46:26;;;;;;;17.57;8.20;;;;;;;5.08;73.34;98664.67;1811382;79;21649;-61
2021/04/04 03:48:56;;;;;;;14.83;8.03;;;;;;;5.16;73.25;98671.28;1742065;82;21167;-62
2021/04/04 03:51:26;;;;;;;14.13;8.20;;;;;;;5.24;73.21;98665.99;1810971;79;21154;-62
2021/04/04 03:53:57;;;;;;;15.90;8.55;;;;;;;5.33;73.15;98673.89;1742240;82;21127;-62
2021/04/04 03:56:32;;;;;;;13.15;8.20;;;;;;;5.41;73.05;98677.94;1811300;79;21538;-63
2021/04/04 03:59:10;;;;;;;13.30;7.92;;;;;;;5.43;73.01;98679.71;1811297;79;21146;-62
2021/04/04 04:01:42;;;;;;;14.47;8.68;;;;;;;5.48;72.94;98681.54;1742472;82;21135;-62
2021/04/04 04:04:12;;;;;;;15.08;8.90;;;;;;;5.51;72.93;98681.20;1811248;79;21146;-61
2021/04/04 04:06:42;;;;;;;14.03;7.97;;;;;;;5.55;73.04;98683.02;1742025;82;21158;-62
2021/04/04 04:09:17;;;;;;;15.38;8.25;;;;;;;5.55;73.28;98689.42;1811035;79;21225;-62
2021/04/04 04:11:48;;;;;;;15.38;8.08;;;;;;;5.53;73.41;98685.09;1742080;82;21170;-63
2021/04/04 04:14:20;;;;;;;12.65;6.78;;;;;;;5.50;73.48;98693.97;1811484;79;21561;-63
2021/04/04 04:16:51;;;;;;;15.53;7.85;;;;;;;5.37;73.87;98698.75;1742136;82;21139;-61
2021/04/04 04:19:19;;;;;;;17.80;8.25;;;;;;;5.12;74.43;98697.20;1788829;79;21111;-61
2021/04/04 04:21:48;;;;;;;16.12;8.78;;;;;;;4.91;74.81;98705.52;1811480;79;21280;-63
2021/04/04 04:24:17;;;;;;;18.70;8.80;;;;;;;4.77;75.15;98699.59;1811435;79;21135;-62
2021/04/04 04:26:47;;;;;;;14.95;8.00;;;;;;;4.71;75.23;98701.12;1742341;82;21171;-62
2021/04/04 04:29:18;;;;;;;17.73;7.40;;;;;;;4.67;75.33;98703.12;1811201;79;21175;-62
2021/04/04 04:31:49;;;;;;;16.62;8.10;;;;;;;4.57;75.27;98706.66;1742616;82;21155;-63
2021/04/04 04:34:20;;;;;;;16.67;8.38;;;;;;;4.45;75.40;98712.70;1811414;79;21131;-63
2021/04/04 04:36:50;;;;;;;14.75;8.10;;;;;;;4.40;75.42;98710.41;1721845;82;21167;-62
2021/04/04 04:39:19;;;;;;;14.23;8.00;;;;;;;4.36;75.37;98717.51;1811283;79;21143;-61
2021/04/04 04:41:50;;;;;;;16.60;8.18;;;;;;;4.30;75.26;98714.74;1742456;82;21304;-61
2021/04/04 04:44:24;;;;;;;18.17;8.15;;;;;;;4.25;75.44;98717.17;1811462;79;21135;-61
2021/04/04 04:46:54;;;;;;;13.55;6.15;;;;;;;4.17;75.58;98713.90;1789496;79;21138;-63
2021/04/04 04:49:24;;;;;;;14.65;7.10;;;;;;;4.11;75.91;98714.58;1742248;82;21146;-62
2021/04/04 04:51:52;;;;;;;12.05;5.40;;;;;;;4.06;76.41;98716.98;1788865;79;21143;-63
2021/04/04 04:54:20;;;;;;;13.43;5.78;;;;;;;4.05;76.91;98712.70;1811378;79;21131;-62
2021/04/04 04:56:49;;;;;;;12.00;5.92;;;;;;;3.99;77.71;98717.58;1811476;79;21139;-61
2021/04/04 04:59:17;;;;;;;9.78;5.65;;;;;;;3.90;78.34;98720.72;1742301;82;21289;-62
2021/04/04 05:01:48;;;;;;;13.53;6.58;;;;;;;3.84;78.76;98715.80;1811136;79;21300;-61
2021/04/04 05:04:16;;;;;;;11.60;6.45;;;;;;;3.80;78.98;98721.22;1811129;79;21142;-63
2021/04/04 05:06:51;;;;;;;12.43;7.20;;;;;;;3.86;79.01;98718.00;1808122;79;21155;-62
2021/04/04 05:09:20;;;;;;;13.72;6.45;;;;;;;3.89;78.82;98720.65;1723272;82;21154;-61
2021/04/04 05:11:50;;;;;;;15.40;6.75;;;;;;;3.93;78.92;98726.33;1803946;79;21115;-64
2021/04/04 05:14:19;;;;;;;12.00;6.25;;;;;;;3.98;79.00;98729.05;1803824;79;21131;-64
2021/04/04 05:16:47;;;;;;;15.18;6.55;;;;;;;4.06;78.95;98716.98;1803970;79;21305;-63
2021/04/04 05:19:15;;;;;;;12.05;6.50;;;;;;;4.16;78.80;98723.67;1803763;79;21151;-64
2021/04/04 05:21:44;;;;;;;12.37;6.53;;;;;;;4.27;78.61;98726.15;1803755;79;21214;-63
2021/04/04 05:24:15;;;;;;;10.70;6.50;;;;;;;4.38;78.45;98729.06;1803859;79;21111;-63
2021/04/04 05:26:47;;;;;;;11.73;7.03;;;;;;;4.49;78.17;98731.53;1803871;79;21128;-63
2021/04/04 05:29:17;;;;;;;10.20;5.78;;;;;;;4.66;77.83;98727.81;1804132;79;21633;-63
2021/04/04 05:31:51;;;;;;;11.10;5.17;;;;;;;4.78;77.26;98734.97;1803700;79;21214;-62
2021/04/04 05:34:22;;;;;;;12.45;6.10;;;;;;;4.85;77.01;98743.28;1803846;79;21171;-63
2021/04/04 05:37:01;;;;;;;12.23;6.15;;;;;;;4.93;76.66;98752.05;1722558;83;21175;-64
2021/04/04 05:39:31;;;;;;;10.18;5.58;;;;;;;4.96;76.32;98748.33;1804004;79;21712;-64
2021/04/04 05:42:07;;;;;;;12.68;5.78;;;;;;;4.97;76.24;98752.61;1803938;79;21703;-63
2021/04/04 05:44:53;;;;;;;11.18;6.45;;;;;;;4.97;76.10;98753.02;1723100;83;21309;-63
2021/04/04 05:47:47;;;;;;;11.88;6.08;;;;;;;5.02;76.16;98749.33;1803903;79;21546;-64
2021/04/04 05:50:43;;;;;;;10.93;5.50;;;;;;;5.11;75.96;98753.42;1786763;79;21143;-63
2021/04/04 05:53:25;;;;;;;10.68;5.67;;;;;;;5.19;75.73;98753.22;1722970;82;21162;-62
2021/04/04 05:56:19;;;;;;;9.95;6.10;;;;;;;5.22;75.80;98755.89;1803960;79;21107;-63
2021/04/04 05:58:58;;;;;;;14.25;6.15;;;;;;;5.23;75.66;98755.05;1722973;83;21147;-64
2021/04/04 06:01:35;;;;;;;13.98;6.05;;;;;;;5.24;75.73;98759.37;1803959;79;21562;-62
2021/04/04 06:04:29;;;;;;;12.68;6.20;;;;;;;5.26;75.94;98763.23;1722880;82;21175;-64
2021/04/04 06:07:10;;;;;;;13.32;7.12;;;;;;;5.32;76.00;98766.84;1806284;79;21162;-63
2021/04/04 06:10:19;;;;;;;11.08;6.45;;;;;;;5.40;75.72;98773.04;1811372;79;21308;-63
2021/04/04 06:13:17;;;;;;;11.22;6.60;;;;;;;5.32;75.72;98771.96;1742171;82;21321;-63
2021/04/04 06:16:21;;;;;;;10.98;6.33;;;;;;;5.34;75.89;98779.66;1811080;79;21147;-63
2021/04/04 06:19:14;;;;;;;12.45;6.20;;;;;;;5.46;75.75;98770.20;1811057;79;21237;-63
2021/04/04 06:22:10;;;;;;;9.83;5.92;;;;;;;5.61;75.24;98774.46;1808269;79;21122;-62
2021/04/04 06:25:07;;;;;;;11.38;6.15;;;;;;;5.70;75.23;98776.00;1742107;82;21178;-63
2021/04/04 06:27:43;;;;;;;13.75;5.75;;;;;;;5.92;74.55;98779.98;1811176;79;21248;-64
2021/04/04 06:30:46;;;;;;;9.88;5.28;;;;;;;6.03;74.44;98776.45;1742042;82;21285;-63
2021/04/04 06:33:02;;;;;;;10.55;5.45;;;;;;;6.29;73.87;98775.86;1807824;79;21328;-63
2021/04/04 06:35:39;;;;;;;11.53;5.75;;;;;;;6.56;73.32;98776.92;1741850;82;21281;-63
2021/04/04 06:38:36;;;;;;;10.23;5.92;;;;;;;7.04;72.58;98775.03;1810554;79;21285;-63
2021/04/04 06:41:25;;;;;;;12.23;6.65;;;;;;;8.94;69.98;98776.80;1810971;79;21167;-64
2021/04/04 06:44:14;;;;;;;9.65;5.95;;;;;;;10.89;62.46;98781.45;1742103;82;21185;-62
2021/04/04 06:47:04;;;;;;;7.45;4.58;;;;;;;12.32;57.14;98787.66;1811397;79;21138;-63
2021/04/04 06:49:50;;;;;;;9.15;5.87;;;;;;;12.72;53.85;98798.03;1811044;79;21135;-62
2021/04/04 06:53:00;;;;;;;7.75;4.53;;;;;;;12.42;53.54;98789.83;1624156;88;21633;-63
2021/04/04 06:55:58;;;;;;;11.40;5.78;;;;;;;12.39;53.68;98796.30;1632327;87;21425;-64
2021/04/04 06:59:02;;;;;;;8.23;5.25;;;;;;;12.73;52.01;98802.33;1632790;88;21196;-64
2021/04/04 07:02:03;;;;;;;9.68;5.80;;;;;;;12.44;51.87;98800.16;1618570;87;21206;-64
2021/04/04 07:04:40;;;;;;;11.37;5.63;;;;;;;11.19;54.79;98797.56;1614669;87;21216;-64
2021/04/04 07:07:26;;;;;;;9.63;5.58;;;;;;;11.19;54.79;98797.56;1630772;87;21817;-62
2021/04/04 07:10:31;;;;;;;9.58;5.97;;;;;;;10.88;55.36;98799.95;1632153;87;21309;-63
2021/04/04 07:13:32;;;;;;;11.50;6.30;;;;;;;10.59;56.21;98805.77;1632521;87;21179;-64
2021/04/04 07:16:35;;;;;;;9.70;5.83;;;;;;;10.24;57.22;98812.28;1632370;88;21374;-65
2021/04/04 07:19:23;;;;;;;8.05;4.92;;;;;;;10.04;58.05;98813.37;1632456;87;21187;-63
2021/04/04 07:22:30;;;;;;;7.67;5.00;;;;;;;9.77;58.54;98822.53;1632232;87;21217;-63
2021/04/04 07:25:12;;;;;;;9.15;4.83;;;;;;;9.40;59.57;98817.34;1632325;87;21195;-63
2021/04/04 07:28:03;;;;;;;9.80;4.90;;;;;;;9.23;60.32;98816.66;1631667;87;21190;-64
2021/04/04 07:30:54;;;;;;;10.70;4.00;;;;;;;9.15;60.73;98807.98;1632648;87;21187;-63
2021/04/04 07:33:50;;;;;;;7.00;4.77;;;;;;;9.02;61.42;98816.38;1632667;87;21175;-63
2021/04/04 07:36:50;;;;;;;8.15;5.17;;;;;;;9.04;61.71;98810.84;1632428;87;22364;-63
2021/04/04 07:39:51;;;;;;;9.53;4.45;;;;;;;9.92;60.66;98805.95;1632506;87;21199;-67
2021/04/04 07:42:27;;;;;;;8.50;4.40;;;;;;;10.94;57.85;98810.74;1632026;87;21184;-63
2021/04/04 07:45:06;;;;;;;7.53;3.95;;;;;;;12.48;54.30;98818.28;1631858;87;21196;-63
2021/04/04 07:47:51;;;;;;;7.75;4.22;;;;;;;13.60;51.26;98820.77;1632508;87;21211;-64
2021/04/04 07:50:27;;;;;;;8.05;3.70;;;;;;;14.58;48.13;98820.70;1632544;87;21325;-65
2021/04/04 07:53:22;;;;;;;7.35;4.25;;;;;;;15.00;47.30;98810.81;1632296;87;21219;-65
2021/04/04 07:56:19;;;;;;;6.70;4.58;;;;;;;14.96;46.94;98813.89;1631389;87;21181;-65
2021/04/04 07:58:58;;;;;;;7.00;3.98;;;;;;;14.75;47.41;98817.95;1647045;86;21166;-64
2021/04/04 08:01:34;;;;;;;7.90;4.10;;;;;;;16.02;45.35;98821.81;1659322;86;21329;-64
2021/04/04 08:04:13;;;;;;;9.18;4.72;;;;;;;17.50;42.29;98821.63;1659351;86;21224;-64
2021/04/04 08:06:49;;;;;;;7.90;4.25;;;;;;;18.57;39.61;98822.83;1655470;86;21110;-63
2021/04/04 08:09:46;;;;;;;7.30;4.03;;;;;;;18.61;38.80;98824.03;1659363;86;21208;-64
2021/04/04 08:12:41;;;;;;;9.93;5.00;;;;;;;17.64;40.00;98827.02;1658159;85;21114;-64
2021/04/04 08:15:25;;;;;;;5.37;3.37;;;;;;;16.51;41.79;98828.06;1659319;86;21098;-65
2021/04/04 08:17:56;;;;;;;5.33;3.22;;;;;;;16.10;42.15;98826.06;1659003;85;21079;-64
2021/04/04 08:20:35;;;;;;;5.00;3.10;;;;;;;16.10;42.15;98826.06;1659103;85;21220;-64
2021/04/04 08:23:17;;;;;;;5.28;2.95;;;;;;;15.57;42.48;98819.30;1658994;86;21218;-63
2021/04/04 08:25:53;;;;;;;5.90;3.42;;;;;;;14.96;43.48;98819.53;1658542;86;21082;-63
2021/04/04 08:28:35;;;;;;;6.40;3.52;;;;;;;14.41;44.32;98819.48;1658684;85;21086;-64
2021/04/04 08:31:27;;;;;;;4.83;2.72;;;;;;;14.09;45.54;98816.67;1659070;86;21229;-63
2021/04/04 08:34:16;;;;;;;8.38;4.03;;;;;;;14.78;43.19;98814.02;1659301;86;21083;-63
2021/04/04 08:37:01;;;;;;;6.92;4.50;;;;;;;14.09;44.08;98808.88;1659519;86;21465;-64
2021/04/04 08:39:32;;;;;;;6.08;3.58;;;;;;;12.46;47.55;98813.97;1659109;86;21054;-63
2021/04/04 08:42:05;;;;;;;5.97;3.80;;;;;;;11.25;49.71;98820.86;1659115;85;21201;-64
2021/04/04 08:44:38;;;;;;;5.45;3.30;;;;;;;10.27;52.19;98805.44;1659355;85;21253;-64
2021/04/04 08:47:27;;;;;;;6.12;3.62;;;;;;;9.50;53.85;98817.90;1658982;86;21094;-64
2021/04/04 08:49:57;;;;;;;4.70;3.37;;;;;;;8.98;55.91;98826.17;1659300;86;21237;-64
2021/04/04 08:52:50;;;;;;;6.92;3.90;;;;;;;8.57;57.57;98818.66;1681975;85;21115;-61
2021/04/04 08:55:23;;;;;;;6.62;3.92;;;;;;;8.47;58.80;98818.92;1695156;85;21095;-65
2021/04/04 08:57:51;;;;;;;;;;;;;;;8.40;59.42;98818.40;1697424;84;21068;-64
2021/04/04 09:00:24;;;;;;;7.15;4.45;;;;;;;8.32;59.97;98826.34;1695352;84;20479;-64
2021/04/04 09:02:57;;;;;;;7.75;4.33;;;;;;;8.22;60.77;98827.48;1695244;84;21086;-64
2021/04/04 09:05:30;;;;;;;9.03;4.87;;;;;;;8.29;61.42;98826.30;1695297;84;21032;-63
2021/04/04 09:08:02;;;;;;;7.53;5.53;;;;;;;8.55;61.00;98819.05;1695326;84;21490;-63
2021/04/04 09:10:38;;;;;;;8.58;5.17;;;;;;;8.67;59.88;98818.83;1695191;84;21092;-63
2021/04/04 09:13:12;;;;;;;8.85;5.35;;;;;;;8.54;60.00;98823.77;1695095;84;21024;-63
2021/04/04 09:15:50;;;;;;;11.43;5.65;;;;;;;8.40;60.38;98821.83;1695061;84;21162;-64
2021/04/04 09:18:21;;;;;;;12.28;6.37;;;;;;;8.17;61.07;98823.96;1695060;84;21068;-64
2021/04/04 09:20:50;;;;;;;13.22;6.55;;;;;;;7.96;61.79;98827.00;1695081;84;21205;-64
2021/04/04 09:23:21;;;;;;;8.98;6.37;;;;;;;7.83;62.60;98830.15;1695078;84;21182;-63
2021/04/04 09:26:08;;;;;;;9.90;6.28;;;;;;;7.52;63.82;98829.53;1695099;84;21072;-63
2021/04/04 09:28:40;;;;;;;9.70;6.78;;;;;;;7.24;64.68;98818.23;1695015;84;21067;-65
2021/04/04 09:31:24;;;;;;;11.45;7.50;;;;;;;6.91;66.72;98828.19;1695469;84;21502;-63
2021/04/04 09:34:02;;;;;;;12.88;6.58;;;;;;;6.57;67.47;98833.80;1691984;84;21241;-63
2021/04/04 09:36:48;;;;;;;8.10;5.92;;;;;;;6.43;68.64;98834.72;1688939;84;21079;-64
2021/04/04 09:39:26;;;;;;;8.05;5.42;;;;;;;6.47;68.03;98829.27;1695227;85;21210;-64
2021/04/04 09:41:57;;;;;;;7.37;5.03;;;;;;;6.57;68.73;98832.52;1695159;84;21036;-64
2021/04/04 09:44:33;;;;;;;9.25;5.33;;;;;;;6.74;69.28;98829.95;1695314;84;21089;-64
2021/04/04 09:47:05;;;;;;;8.95;6.70;;;;;;;6.92;68.20;98823.10;1695283;84;21088;-64
2021/04/04 09:49:37;;;;;;;8.90;6.35;;;;;;;7.06;67.47;98808.01;1695161;84;21222;-64
2021/04/04 09:52:29;;;;;;;9.00;6.10;;;;;;;6.89;67.40;98806.75;1694827;84;21213;-65
2021/04/04 09:55:10;;;;;;;7.92;5.40;;;;;;;6.68;67.16;98806.70;1657866;86;21052;-64
2021/04/04 09:57:49;;;;;;;10.55;5.53;;;;;;;6.92;67.44;98802.97;1638522;86;21070;-63
2021/04/04 10:00:28;;;;;;;9.93;6.30;;;;;;;7.46;68.01;98801.17;1668614;85;21219;-64
2021/04/04 10:03:07;;;;;;;8.23;5.42;;;;;;;8.25;66.57;98803.53;1668540;85;21073;-64
2021/04/04 10:05:39;;;;;;;11.15;6.22;;;;;;;8.89;64.18;98797.31;1655984;84;21655;-63
2021/04/04 10:08:15;;;;;;;9.45;5.75;;;;;;;9.45;62.39;98795.08;1668543;85;21169;-64
2021/04/04 10:10:52;;;;;;;7.28;5.22;;;;;;;9.78;59.27;98804.92;1668556;85;21094;-64
2021/04/04 10:13:27;;;;;;;9.38;6.05;;;;;;;9.89;58.43;98791.72;1668762;85;21049;-65
2021/04/04 10:15:57;;;;;;;7.87;5.35;;;;;;;10.04;58.56;98791.02;1668634;86;21216;-64
2021/04/04 10:18:26;;;;;;;10.63;7.10;;;;;;;10.26;59.05;98798.98;1668561;85;21204;-64
2021/04/04 10:20:58;;;;;;;12.63;8.87;;;;;;;10.45;57.19;98794.45;1668797;85;21102;-63
2021/04/04 10:23:32;;;;;;;13.35;8.98;;;;;;;10.49;57.10;98794.06;1668832;85;21354;-64
2021/04/04 10:26:09;;;;;;;11.60;7.42;;;;;;;10.41;57.57;98792.28;1668623;85;21209;-65
2021/04/04 10:29:01;;;;;;;10.25;7.08;;;;;;;10.30;56.88;98782.70;1668776;86;21066;-64
2021/04/04 10:31:26;;;;;;;9.58;6.97;;;;;;;10.10;56.64;98788.53;1694884;84;21048;-63
2021/04/04 10:34:03;;;;;;;9.03;6.53;;;;;;;9.96;56.82;98784.93;1700533;83;21040;-64
2021/04/04 10:36:31;;;;;;;9.88;6.47;;;;;;;10.00;56.61;98782.84;1700616;83;21480;-63
2021/04/04 10:38:59;;;;;;;10.13;7.00;;;;;;;10.06;56.51;98785.47;1700549;84;21210;-63
2021/04/04 10:41:31;;;;;;;10.10;6.55;;;;;;;10.21;56.36;98784.75;1700369;84;21039;-63
2021/04/04 10:43:59;;;;;;;10.95;7.50;;;;;;;10.48;55.39;98783.29;1700266;83;21206;-65
2021/04/04 10:46:31;;;;;;;9.50;7.03;;;;;;;10.70;55.35;98783.05;1700281;83;21263;-64
2021/04/04 10:49:00;;;;;;;;;;;;;;;10.86;55.18;98784.47;1702964;84;21241;-63
2021/04/04 10:51:30;;;;;;;9.08;6.15;;;;;;;10.94;54.38;98780.65;1687583;84;20163;-64
2021/04/04 10:54:02;;;;;;;11.10;6.53;;;;;;;10.90;54.12;98778.89;1656133;86;21230;-64
2021/04/04 10:56:30;;;;;;;;;;;;;;;10.88;53.94;98785.75;1657154;87;21218;-64
2021/04/04 10:59:01;;;;;;;8.53;6.15;;;;;;;10.94;53.66;98779.36;1664465;86;20177;-64
2021/04/04 11:01:32;;;;;;;10.27;6.07;;;;;;;11.14;53.58;98772.99;1664689;86;21088;-63
2021/04/04 11:04:05;;;;;;;11.80;6.08;;;;;;;11.22;52.33;98769.16;1664442;86;21052;-64
2021/04/04 11:06:31;;;;;;;7.10;5.12;;;;;;;11.16;52.22;98773.02;1664585;86;21550;-63
2021/04/04 11:09:00;;;;;;;14.93;10.60;;;;;;;11.14;52.48;98771.70;1664458;86;21271;-62
2021/04/04 11:11:28;;;;;;;14.38;10.40;;;;;;;11.07;51.82;98766.09;1664570;86;21223;-62
2021/04/04 11:14:00;;;;;;;7.50;5.28;;;;;;;10.84;51.55;98770.68;1664679;86;21231;-63
2021/04/04 11:16:29;;;;;;;8.23;5.28;;;;;;;10.56;51.74;98774.78;1664420;86;21108;-64
2021/04/04 11:18:59;;;;;;;10.28;6.15;;;;;;;10.33;52.11;98761.70;1664411;86;21329;-64
2021/04/04 11:21:38;;;;;;;8.18;5.67;;;;;;;10.11;52.25;98768.33;1647378;86;21079;-64
2021/04/04 11:24:13;;;;;;;8.68;5.28;;;;;;;9.99;52.76;98774.21;1664543;86;21072;-64
2021/04/04 11:26:55;;;;;;;9.60;5.55;;;;;;;9.82;52.86;98772.31;1664431;86;21084;-64
2021/04/04 11:29:26;;;;;;;8.80;6.17;;;;;;;9.56;53.74;98778.03;1664703;86;21254;-63
2021/04/04 11:31:57;;;;;;;12.15;6.60;;;;;;;9.27;55.65;98778.54;1664592;86;21613;-63
2021/04/04 11:34:33;;;;;;;7.05;4.95;;;;;;;8.98;57.80;98774.69;1664601;86;21107;-64
2021/04/04 11:37:06;;;;;;;9.65;5.00;;;;;;;8.52;60.14;98754.71;1664749;86;21523;-63
2021/04/04 11:39:34;;;;;;;11.70;6.67;;;;;;;7.94;62.25;98793.12;1664540;86;21076;-64
2021/04/04 11:42:05;;;;;;;11.38;8.08;;;;;;;7.40;65.36;98798.45;1664422;86;21264;-64
2021/04/04 11:44:39;;;;;;;9.33;5.72;;;;;;;6.88;68.07;98777.67;1664751;86;21504;-64
2021/04/04 11:47:20;;;;;;;5.28;3.75;;;;;;;6.30;70.16;98804.06;1664697;86;21637;-63
2021/04/04 11:49:53;;;;;;;;;;;;;;;5.86;72.04;98810.15;1667132;86;21072;-64
2021/04/04 11:52:29;;;;;;;6.78;3.25;;;;;;;5.57;74.21;98815.76;1664416;86;20283;-63
2021/04/04 11:54:58;;;;;;;6.42;4.03;;;;;;;5.34;74.92;98813.81;1658709;86;21121;-65
2021/04/04 11:57:34;;;;;;;4.97;2.75;;;;;;;5.26;76.45;98801.61;1658821;86;21064;-63
2021/04/04 12:00:08;;;;;;;7.15;2.87;;;;;;;5.24;76.05;98801.58;1658678;86;21049;-63
2021/04/04 12:02:41;;;;;;;4.58;2.33;;;;;;;5.33;76.16;98799.27;1658757;86;21223;-64
2021/04/04 12:05:15;;;;;;;3.65;1.90;;;;;;;5.52;76.33;98798.13;1658531;86;21543;-64
2021/04/04 12:07:51;;;;;;;5.40;3.00;;;;;;;5.74;76.71;98789.33;1658834;86;21116;-64
2021/04/04 12:10:26;;;;;;;5.17;2.85;;;;;;;6.00;76.36;98781.50;1658659;86;21071;-63
2021/04/04 12:12:55;;;;;;;6.65;2.77;;;;;;;6.27;74.79;98775.80;1658767;86;21076;-64
2021/04/04 12:15:27;;;;;;;6.33;3.42;;;;;;;6.51;73.55;98770.81;1658891;86;21068;-63